sensor_id;sensor_type;location;lat;lon;timestamp;temperature;humidity
6429;DHT22;3247;48.946;10.220;2023-04-15T00:01:36;2.80;99.90
6429;DHT22;3247;48.946;10.220;2023-04-15T00:04:05;2.80;99.90
6429;DHT22;3247;48.946;10.220;2023-04-15T00:06:30;2.80;99.90
6429;DHT22;3247;48.946;10.220;2023-04-15T00:08:56;2.70;99.90
6429;DHT22;3247;48.946;10.220;2023-04-15T00:11:21;2.70;99.90
6429;DHT22;3247;48.946;10.220;2023-04-15T00:13:48;2.60;99.90
6429;DHT22;3247;48.946;10.220;2023-04-15T00:16:14;2.60;99.90
6429;DHT22;3247;48.946;10.220;2023-04-15T00:18:39;2.60;99.90
6429;DHT22;3247;48.946;10.220;2023-04-15T00:21:05;3.10;99.90
6429;DHT22;3247;48.946;10.220;2023-04-15T00:23:30;2.60;99.90
6429;DHT22;3247;48.946;10.220;2023-04-15T00:25:56;2.50;99.90
6429;DHT22;3247;48.946;10.220;2023-04-15T00:28:21;2.50;99.90
6429;DHT22;3247;48.946;10.220;2023-04-15T00:30:47;2.50;99.90
6429;DHT22;3247;48.946;10.220;2023-04-15T00:36:01;2.50;99.90
6429;DHT22;3247;48.946;10.220;2023-04-15T00:38:28;2.40;99.90
6429;DHT22;3247;48.946;10.220;2023-04-15T00:40:53;2.40;99.90
6429;DHT22;3247;48.946;10.220;2023-04-15T00:43:19;2.50;99.90
6429;DHT22;3247;48.946;10.220;2023-04-15T00:45:45;2.50;99.90
6429;DHT22;3247;48.946;10.220;2023-04-15T00:48:11;2.50;99.90
6429;DHT22;3247;48.946;10.220;2023-04-15T00:50:37;2.40;99.90
6429;DHT22;3247;48.946;10.220;2023-04-15T00:53:02;2.40;99.90
6429;DHT22;3247;48.946;10.220;2023-04-15T00:55:28;2.40;99.90
6429;DHT22;3247;48.946;10.220;2023-04-15T00:57:53;2.30;99.90
6429;DHT22;3247;48.946;10.220;2023-04-15T01:00:20;2.30;99.90
6429;DHT22;3247;48.946;10.220;2023-04-15T01:02:46;2.30;99.90
6429;DHT22;3247;48.946;10.220;2023-04-15T01:05:11;2.20;99.90
6429;DHT22;3247;48.946;10.220;2023-04-15T01:07:37;2.20;99.90
6429;DHT22;3247;48.946;10.220;2023-04-15T01:10:02;2.20;99.90
6429;DHT22;3247;48.946;10.220;2023-04-15T01:12:28;2.30;99.90
6429;DHT22;3247;48.946;10.220;2023-04-15T01:14:56;2.10;99.90
6429;DHT22;3247;48.946;10.220;2023-04-15T01:17:21;2.10;99.90
6429;DHT22;3247;48.946;10.220;2023-04-15T01:19:48;2.10;99.90
6429;DHT22;3247;48.946;10.220;2023-04-15T01:22:14;2.10;99.90
6429;DHT22;3247;48.946;10.220;2023-04-15T01:24:40;2.20;99.90
6429;DHT22;3247;48.946;10.220;2023-04-15T01:27:07;2.20;99.90
6429;DHT22;3247;48.946;10.220;2023-04-15T01:29:35;2.20;99.90
6429;DHT22;3247;48.946;10.220;2023-04-15T01:32:01;2.10;99.90
6429;DHT22;3247;48.946;10.220;2023-04-15T01:34:27;2.10;99.90
6429;DHT22;3247;48.946;10.220;2023-04-15T01:36:52;2.00;99.90
6429;DHT22;3247;48.946;10.220;2023-04-15T01:39:18;2.00;99.90
6429;DHT22;3247;48.946;10.220;2023-04-15T01:41:43;2.10;99.90
6429;DHT22;3247;48.946;10.220;2023-04-15T01:44:09;2.20;99.90
6429;DHT22;3247;48.946;10.220;2023-04-15T01:46:34;2.00;99.90
6429;DHT22;3247;48.946;10.220;2023-04-15T01:49:00;2.00;99.90
6429;DHT22;3247;48.946;10.220;2023-04-15T01:51:25;2.00;99.90
6429;DHT22;3247;48.946;10.220;2023-04-15T01:53:51;1.90;99.90
6429;DHT22;3247;48.946;10.220;2023-04-15T01:56:17;1.90;99.90
6429;DHT22;3247;48.946;10.220;2023-04-15T01:58:43;1.90;99.90
6429;DHT22;3247;48.946;10.220;2023-04-15T02:01:08;1.90;99.90
6429;DHT22;3247;48.946;10.220;2023-04-15T02:03:37;2.00;99.90
6429;DHT22;3247;48.946;10.220;2023-04-15T02:06:03;2.00;99.90
6429;DHT22;3247;48.946;10.220;2023-04-15T02:08:30;2.20;99.90
6429;DHT22;3247;48.946;10.220;2023-04-15T02:10:55;2.00;99.90
6429;DHT22;3247;48.946;10.220;2023-04-15T02:13:21;2.00;99.90
6429;DHT22;3247;48.946;10.220;2023-04-15T02:15:47;1.90;99.90
6429;DHT22;3247;48.946;10.220;2023-04-15T02:18:14;2.00;99.90
6429;DHT22;3247;48.946;10.220;2023-04-15T02:20:39;1.90;99.90
6429;DHT22;3247;48.946;10.220;2023-04-15T02:23:05;2.00;99.90
6429;DHT22;3247;48.946;10.220;2023-04-15T02:25:31;2.00;99.90
6429;DHT22;3247;48.946;10.220;2023-04-15T02:27:57;1.90;99.90
6429;DHT22;3247;48.946;10.220;2023-04-15T02:30:22;2.00;99.90
6429;DHT22;3247;48.946;10.220;2023-04-15T02:33:04;2.00;99.90
6429;DHT22;3247;48.946;10.220;2023-04-15T02:35:31;2.00;99.90
6429;DHT22;3247;48.946;10.220;2023-04-15T02:37:57;2.00;99.90
6429;DHT22;3247;48.946;10.220;2023-04-15T02:40:22;2.10;99.90
6429;DHT22;3247;48.946;10.220;2023-04-15T02:42:48;2.10;99.90
6429;DHT22;3247;48.946;10.220;2023-04-15T02:45:13;2.10;99.90
6429;DHT22;3247;48.946;10.220;2023-04-15T02:47:39;2.00;99.90
6429;DHT22;3247;48.946;10.220;2023-04-15T02:50:10;2.10;99.90
6429;DHT22;3247;48.946;10.220;2023-04-15T02:52:40;2.10;99.90
6429;DHT22;3247;48.946;10.220;2023-04-15T02:55:06;2.10;99.90
6429;DHT22;3247;48.946;10.220;2023-04-15T02:57:32;1.80;99.90
6429;DHT22;3247;48.946;10.220;2023-04-15T02:59:59;2.10;99.90
6429;DHT22;3247;48.946;10.220;2023-04-15T03:02:24;2.00;99.90
6429;DHT22;3247;48.946;10.220;2023-04-15T03:04:50;2.50;99.90
6429;DHT22;3247;48.946;10.220;2023-04-15T03:07:16;2.10;99.90
6429;DHT22;3247;48.946;10.220;2023-04-15T03:09:42;2.10;99.90
6429;DHT22;3247;48.946;10.220;2023-04-15T03:12:07;2.10;99.90
6429;DHT22;3247;48.946;10.220;2023-04-15T03:14:33;2.10;99.90
6429;DHT22;3247;48.946;10.220;2023-04-15T03:16:58;2.10;99.90
6429;DHT22;3247;48.946;10.220;2023-04-15T03:19:24;2.10;99.90
6429;DHT22;3247;48.946;10.220;2023-04-15T03:21:49;2.10;99.90
6429;DHT22;3247;48.946;10.220;2023-04-15T03:24:16;2.10;99.90
6429;DHT22;3247;48.946;10.220;2023-04-15T03:26:41;2.00;99.90
6429;DHT22;3247;48.946;10.220;2023-04-15T03:29:07;2.00;99.90
6429;DHT22;3247;48.946;10.220;2023-04-15T03:31:32;2.00;99.90
6429;DHT22;3247;48.946;10.220;2023-04-15T03:33:58;2.00;99.90
6429;DHT22;3247;48.946;10.220;2023-04-15T03:36:23;2.00;99.90
6429;DHT22;3247;48.946;10.220;2023-04-15T03:38:49;2.00;99.90
6429;DHT22;3247;48.946;10.220;2023-04-15T03:41:14;2.00;99.90
6429;DHT22;3247;48.946;10.220;2023-04-15T03:43:40;2.00;99.90
6429;DHT22;3247;48.946;10.220;2023-04-15T03:46:05;2.00;99.90
6429;DHT22;3247;48.946;10.220;2023-04-15T03:48:31;2.00;99.90
6429;DHT22;3247;48.946;10.220;2023-04-15T03:50:56;1.90;99.90
6429;DHT22;3247;48.946;10.220;2023-04-15T03:53:22;1.90;99.90
6429;DHT22;3247;48.946;10.220;2023-04-15T03:55:47;1.90;99.90
6429;DHT22;3247;48.946;10.220;2023-04-15T03:58:13;1.90;99.90
6429;DHT22;3247;48.946;10.220;2023-04-15T04:00:38;1.90;99.90
6429;DHT22;3247;48.946;10.220;2023-04-15T04:03:04;2.00;99.90
6429;DHT22;3247;48.946;10.220;2023-04-15T04:05:29;1.90;99.90
6429;DHT22;3247;48.946;10.220;2023-04-15T04:07:55;1.90;99.90
6429;DHT22;3247;48.946;10.220;2023-04-15T04:10:20;1.90;99.90
6429;DHT22;3247;48.946;10.220;2023-04-15T04:12:46;2.00;99.90
6429;DHT22;3247;48.946;10.220;2023-04-15T04:15:11;2.00;99.90
6429;DHT22;3247;48.946;10.220;2023-04-15T04:17:37;1.90;99.90
6429;DHT22;3247;48.946;10.220;2023-04-15T04:20:02;1.80;99.90
6429;DHT22;3247;48.946;10.220;2023-04-15T04:22:28;1.70;99.90
6429;DHT22;3247;48.946;10.220;2023-04-15T04:24:53;1.70;99.90
6429;DHT22;3247;48.946;10.220;2023-04-15T04:27:19;1.60;99.90
6429;DHT22;3247;48.946;10.220;2023-04-15T04:29:44;1.70;99.90
6429;DHT22;3247;48.946;10.220;2023-04-15T04:32:12;1.70;99.90
6429;DHT22;3247;48.946;10.220;2023-04-15T04:34:37;1.70;99.90
6429;DHT22;3247;48.946;10.220;2023-04-15T04:37:02;1.70;99.90
6429;DHT22;3247;48.946;10.220;2023-04-15T04:39:28;1.70;99.90
6429;DHT22;3247;48.946;10.220;2023-04-15T04:41:53;1.70;99.90
6429;DHT22;3247;48.946;10.220;2023-04-15T04:44:19;1.60;99.90
6429;DHT22;3247;48.946;10.220;2023-04-15T04:46:44;1.60;99.90
6429;DHT22;3247;48.946;10.220;2023-04-15T04:49:10;1.70;99.90
6429;DHT22;3247;48.946;10.220;2023-04-15T04:51:35;1.70;99.90
6429;DHT22;3247;48.946;10.220;2023-04-15T04:54:01;1.70;99.90
6429;DHT22;3247;48.946;10.220;2023-04-15T04:56:26;1.70;99.90
6429;DHT22;3247;48.946;10.220;2023-04-15T04:58:52;1.80;99.90
6429;DHT22;3247;48.946;10.220;2023-04-15T05:01:17;1.80;99.90
6429;DHT22;3247;48.946;10.220;2023-04-15T05:03:55;1.90;99.90
6429;DHT22;3247;48.946;10.220;2023-04-15T05:06:21;1.90;99.90
6429;DHT22;3247;48.946;10.220;2023-04-15T05:08:46;1.90;99.90
6429;DHT22;3247;48.946;10.220;2023-04-15T05:11:12;1.90;99.90
6429;DHT22;3247;48.946;10.220;2023-04-15T05:13:37;2.00;99.90
6429;DHT22;3247;48.946;10.220;2023-04-15T05:16:04;2.10;99.90
6429;DHT22;3247;48.946;10.220;2023-04-15T05:18:29;2.20;99.90
6429;DHT22;3247;48.946;10.220;2023-04-15T05:20:55;2.30;99.90
6429;DHT22;3247;48.946;10.220;2023-04-15T05:23:20;2.40;99.90
6429;DHT22;3247;48.946;10.220;2023-04-15T05:25:46;2.50;99.90
6429;DHT22;3247;48.946;10.220;2023-04-15T05:28:11;2.70;99.90
6429;DHT22;3247;48.946;10.220;2023-04-15T05:30:37;2.70;99.90
6429;DHT22;3247;48.946;10.220;2023-04-15T05:33:18;2.20;99.90
6429;DHT22;3247;48.946;10.220;2023-04-15T05:35:43;2.80;99.90
6429;DHT22;3247;48.946;10.220;2023-04-15T05:38:09;2.90;99.90
6429;DHT22;3247;48.946;10.220;2023-04-15T05:40:35;2.90;99.90
6429;DHT22;3247;48.946;10.220;2023-04-15T05:43:01;3.10;99.90
6429;DHT22;3247;48.946;10.220;2023-04-15T05:45:26;3.20;99.90
6429;DHT22;3247;48.946;10.220;2023-04-15T05:47:51;3.40;99.90
6429;DHT22;3247;48.946;10.220;2023-04-15T05:50:18;3.60;99.90
6429;DHT22;3247;48.946;10.220;2023-04-15T05:52:44;3.70;99.90
6429;DHT22;3247;48.946;10.220;2023-04-15T05:55:10;4.00;99.90
6429;DHT22;3247;48.946;10.220;2023-04-15T05:57:36;4.00;99.90
6429;DHT22;3247;48.946;10.220;2023-04-15T06:00:02;4.30;99.90
6429;DHT22;3247;48.946;10.220;2023-04-15T06:02:28;4.20;99.90
6429;DHT22;3247;48.946;10.220;2023-04-15T06:04:53;4.40;99.90
6429;DHT22;3247;48.946;10.220;2023-04-15T06:07:19;4.50;99.90
6429;DHT22;3247;48.946;10.220;2023-04-15T06:09:44;4.60;99.90
6429;DHT22;3247;48.946;10.220;2023-04-15T06:12:10;4.60;99.90
6429;DHT22;3247;48.946;10.220;2023-04-15T06:14:37;4.70;99.90
6429;DHT22;3247;48.946;10.220;2023-04-15T06:17:03;4.80;99.90
6429;DHT22;3247;48.946;10.220;2023-04-15T06:19:28;5.10;99.90
6429;DHT22;3247;48.946;10.220;2023-04-15T06:21:54;5.30;99.90
6429;DHT22;3247;48.946;10.220;2023-04-15T06:24:20;5.60;99.90
6429;DHT22;3247;48.946;10.220;2023-04-15T06:26:45;5.80;99.90
6429;DHT22;3247;48.946;10.220;2023-04-15T06:29:11;6.10;99.90
6429;DHT22;3247;48.946;10.220;2023-04-15T06:31:36;6.40;99.90
6429;DHT22;3247;48.946;10.220;2023-04-15T06:34:02;6.80;99.90
6429;DHT22;3247;48.946;10.220;2023-04-15T06:36:27;7.20;99.90
6429;DHT22;3247;48.946;10.220;2023-04-15T06:38:53;7.40;99.90
6429;DHT22;3247;48.946;10.220;2023-04-15T06:41:18;7.60;99.90
6429;DHT22;3247;48.946;10.220;2023-04-15T06:43:43;7.80;99.90
6429;DHT22;3247;48.946;10.220;2023-04-15T06:46:09;8.10;99.90
6429;DHT22;3247;48.946;10.220;2023-04-15T06:48:36;8.20;99.90
6429;DHT22;3247;48.946;10.220;2023-04-15T06:51:02;8.40;99.90
6429;DHT22;3247;48.946;10.220;2023-04-15T06:53:28;8.50;99.90
6429;DHT22;3247;48.946;10.220;2023-04-15T06:55:53;8.50;99.90
6429;DHT22;3247;48.946;10.220;2023-04-15T06:58:19;8.50;99.90
6429;DHT22;3247;48.946;10.220;2023-04-15T07:00:44;8.60;99.90
6429;DHT22;3247;48.946;10.220;2023-04-15T07:03:22;8.10;99.90
6429;DHT22;3247;48.946;10.220;2023-04-15T07:05:48;8.80;99.90
6429;DHT22;3247;48.946;10.220;2023-04-15T07:08:13;8.80;99.90
6429;DHT22;3247;48.946;10.220;2023-04-15T07:10:39;8.40;99.90
6429;DHT22;3247;48.946;10.220;2023-04-15T07:13:04;9.10;99.90
6429;DHT22;3247;48.946;10.220;2023-04-15T07:15:31;9.10;99.90
6429;DHT22;3247;48.946;10.220;2023-04-15T07:17:57;9.20;99.90
6429;DHT22;3247;48.946;10.220;2023-04-15T07:20:22;9.20;99.90
6429;DHT22;3247;48.946;10.220;2023-04-15T07:22:47;9.20;99.90
6429;DHT22;3247;48.946;10.220;2023-04-15T07:25:13;9.10;99.90
6429;DHT22;3247;48.946;10.220;2023-04-15T07:27:39;9.00;99.90
6429;DHT22;3247;48.946;10.220;2023-04-15T07:30:05;9.00;99.90
6429;DHT22;3247;48.946;10.220;2023-04-15T07:32:34;9.00;99.90
6429;DHT22;3247;48.946;10.220;2023-04-15T07:34:59;9.20;99.90
6429;DHT22;3247;48.946;10.220;2023-04-15T07:37:25;9.30;99.90
6429;DHT22;3247;48.946;10.220;2023-04-15T07:39:50;9.50;99.90
6429;DHT22;3247;48.946;10.220;2023-04-15T07:42:17;9.80;99.90
6429;DHT22;3247;48.946;10.220;2023-04-15T07:44:42;9.60;99.90
6429;DHT22;3247;48.946;10.220;2023-04-15T07:47:08;9.70;99.90
6429;DHT22;3247;48.946;10.220;2023-04-15T07:49:33;9.60;99.90
6429;DHT22;3247;48.946;10.220;2023-04-15T07:51:59;9.60;99.90
6429;DHT22;3247;48.946;10.220;2023-04-15T07:54:24;9.60;99.90
6429;DHT22;3247;48.946;10.220;2023-04-15T07:56:50;9.60;99.90
6429;DHT22;3247;48.946;10.220;2023-04-15T07:59:16;9.50;99.90
6429;DHT22;3247;48.946;10.220;2023-04-15T08:01:42;9.70;99.90
6429;DHT22;3247;48.946;10.220;2023-04-15T08:04:08;9.60;99.90
6429;DHT22;3247;48.946;10.220;2023-04-15T08:06:33;9.60;99.90
6429;DHT22;3247;48.946;10.220;2023-04-15T08:08:59;9.80;99.90
6429;DHT22;3247;48.946;10.220;2023-04-15T08:11:25;9.80;99.90
6429;DHT22;3247;48.946;10.220;2023-04-15T08:13:51;9.90;99.90
6429;DHT22;3247;48.946;10.220;2023-04-15T08:16:21;9.90;99.90
6429;DHT22;3247;48.946;10.220;2023-04-15T08:18:47;10.00;99.90
6429;DHT22;3247;48.946;10.220;2023-04-15T08:21:12;10.00;99.90
6429;DHT22;3247;48.946;10.220;2023-04-15T08:23:38;10.10;99.90
6429;DHT22;3247;48.946;10.220;2023-04-15T08:26:04;10.20;99.90
6429;DHT22;3247;48.946;10.220;2023-04-15T08:28:29;10.20;99.90
6429;DHT22;3247;48.946;10.220;2023-04-15T08:30:55;10.40;99.90
6429;DHT22;3247;48.946;10.220;2023-04-15T08:33:20;10.40;99.90
6429;DHT22;3247;48.946;10.220;2023-04-15T08:35:46;10.50;99.90
6429;DHT22;3247;48.946;10.220;2023-04-15T08:38:11;10.60;99.90
6429;DHT22;3247;48.946;10.220;2023-04-15T08:40:40;10.80;99.90
6429;DHT22;3247;48.946;10.220;2023-04-15T08:43:10;10.80;99.90
6429;DHT22;3247;48.946;10.220;2023-04-15T08:45:37;11.00;99.90
6429;DHT22;3247;48.946;10.220;2023-04-15T08:48:03;11.10;99.90
6429;DHT22;3247;48.946;10.220;2023-04-15T08:50:29;11.10;99.90
6429;DHT22;3247;48.946;10.220;2023-04-15T08:52:57;11.10;99.90
6429;DHT22;3247;48.946;10.220;2023-04-15T08:55:23;11.10;99.90
6429;DHT22;3247;48.946;10.220;2023-04-15T08:57:49;11.20;99.90
6429;DHT22;3247;48.946;10.220;2023-04-15T09:00:15;11.20;99.90
6429;DHT22;3247;48.946;10.220;2023-04-15T09:02:41;11.30;99.90
6429;DHT22;3247;48.946;10.220;2023-04-15T09:05:07;11.10;99.90
6429;DHT22;3247;48.946;10.220;2023-04-15T09:07:33;11.30;99.90
6429;DHT22;3247;48.946;10.220;2023-04-15T09:09:59;11.50;99.90
6429;DHT22;3247;48.946;10.220;2023-04-15T09:12:25;11.70;99.90
6429;DHT22;3247;48.946;10.220;2023-04-15T09:14:51;11.80;99.90
6429;DHT22;3247;48.946;10.220;2023-04-15T09:17:17;12.20;99.90
6429;DHT22;3247;48.946;10.220;2023-04-15T09:19:43;12.20;99.90
6429;DHT22;3247;48.946;10.220;2023-04-15T09:22:09;12.50;99.90
6429;DHT22;3247;48.946;10.220;2023-04-15T09:24:36;12.80;99.90
6429;DHT22;3247;48.946;10.220;2023-04-15T09:27:03;12.90;99.90
6429;DHT22;3247;48.946;10.220;2023-04-15T09:29:28;13.20;99.90
6429;DHT22;3247;48.946;10.220;2023-04-15T09:31:54;13.00;99.90
6429;DHT22;3247;48.946;10.220;2023-04-15T09:34:19;12.60;99.90
6429;DHT22;3247;48.946;10.220;2023-04-15T09:39:11;12.60;99.90
6429;DHT22;3247;48.946;10.220;2023-04-15T09:41:36;12.40;99.90
6429;DHT22;3247;48.946;10.220;2023-04-15T09:44:02;12.50;99.90
6429;DHT22;3247;48.946;10.220;2023-04-15T09:46:43;12.40;99.90
6429;DHT22;3247;48.946;10.220;2023-04-15T09:49:10;12.70;99.90
6429;DHT22;3247;48.946;10.220;2023-04-15T09:51:35;12.30;99.90
6429;DHT22;3247;48.946;10.220;2023-04-15T09:54:01;12.20;99.90
6429;DHT22;3247;48.946;10.220;2023-04-15T09:56:34;11.90;99.90
6429;DHT22;3247;48.946;10.220;2023-04-15T09:59:01;11.80;99.90
6429;DHT22;3247;48.946;10.220;2023-04-15T10:01:26;11.70;99.90
6429;DHT22;3247;48.946;10.220;2023-04-15T10:03:52;11.80;99.90
6429;DHT22;3247;48.946;10.220;2023-04-15T10:06:18;12.00;99.90
6429;DHT22;3247;48.946;10.220;2023-04-15T10:08:44;11.90;99.90
6429;DHT22;3247;48.946;10.220;2023-04-15T10:11:10;12.10;99.90
6429;DHT22;3247;48.946;10.220;2023-04-15T10:13:36;12.30;99.90
6429;DHT22;3247;48.946;10.220;2023-04-15T10:16:05;12.10;99.90
6429;DHT22;3247;48.946;10.220;2023-04-15T10:18:33;12.10;99.90
6429;DHT22;3247;48.946;10.220;2023-04-15T10:20:59;12.10;99.90
6429;DHT22;3247;48.946;10.220;2023-04-15T10:23:25;12.00;99.90
6429;DHT22;3247;48.946;10.220;2023-04-15T10:25:52;11.90;99.90
6429;DHT22;3247;48.946;10.220;2023-04-15T10:28:18;12.00;99.90
6429;DHT22;3247;48.946;10.220;2023-04-15T10:30:44;11.50;99.90
6429;DHT22;3247;48.946;10.220;2023-04-15T10:33:10;12.30;99.90
6429;DHT22;3247;48.946;10.220;2023-04-15T10:35:36;12.10;99.90
6429;DHT22;3247;48.946;10.220;2023-04-15T10:38:01;11.90;99.90
6429;DHT22;3247;48.946;10.220;2023-04-15T10:40:28;12.00;99.90
6429;DHT22;3247;48.946;10.220;2023-04-15T10:42:56;12.00;99.90
6429;DHT22;3247;48.946;10.220;2023-04-15T10:45:24;11.80;99.90
6429;DHT22;3247;48.946;10.220;2023-04-15T10:47:56;11.60;99.90
6429;DHT22;3247;48.946;10.220;2023-04-15T10:50:24;11.20;99.90
6429;DHT22;3247;48.946;10.220;2023-04-15T10:52:50;11.40;99.90
6429;DHT22;3247;48.946;10.220;2023-04-15T10:55:23;11.40;99.90
6429;DHT22;3247;48.946;10.220;2023-04-15T10:57:52;11.70;99.90
6429;DHT22;3247;48.946;10.220;2023-04-15T11:00:18;11.90;99.90
6429;DHT22;3247;48.946;10.220;2023-04-15T11:05:13;12.30;99.90
6429;DHT22;3247;48.946;10.220;2023-04-15T11:12:42;12.30;99.90
6429;DHT22;3247;48.946;10.220;2023-04-15T11:17:52;12.60;99.90
6429;DHT22;3247;48.946;10.220;2023-04-15T11:20:18;12.40;99.90
6429;DHT22;3247;48.946;10.220;2023-04-15T11:22:51;12.20;99.90
6429;DHT22;3247;48.946;10.220;2023-04-15T11:25:27;12.10;99.90
6429;DHT22;3247;48.946;10.220;2023-04-15T11:27:55;12.00;99.90
6429;DHT22;3247;48.946;10.220;2023-04-15T11:30:21;12.50;99.90
6429;DHT22;3247;48.946;10.220;2023-04-15T11:32:48;12.50;99.90
6429;DHT22;3247;48.946;10.220;2023-04-15T11:35:14;12.30;99.90
6429;DHT22;3247;48.946;10.220;2023-04-15T11:37:40;12.50;99.90
6429;DHT22;3247;48.946;10.220;2023-04-15T11:40:06;12.20;99.90
6429;DHT22;3247;48.946;10.220;2023-04-15T11:42:32;12.20;99.90
6429;DHT22;3247;48.946;10.220;2023-04-15T11:45:10;12.40;99.90
6429;DHT22;3247;48.946;10.220;2023-04-15T11:47:36;12.30;99.90
6429;DHT22;3247;48.946;10.220;2023-04-15T11:50:15;12.20;99.90
6429;DHT22;3247;48.946;10.220;2023-04-15T11:52:56;11.90;99.90
6429;DHT22;3247;48.946;10.220;2023-04-15T11:55:23;11.50;99.90
6429;DHT22;3247;48.946;10.220;2023-04-15T12:00:32;11.40;99.90
6429;DHT22;3247;48.946;10.220;2023-04-15T12:03:10;11.20;99.90
6429;DHT22;3247;48.946;10.220;2023-04-15T12:05:36;11.00;99.90
6429;DHT22;3247;48.946;10.220;2023-04-15T12:08:02;10.90;99.90
6429;DHT22;3247;48.946;10.220;2023-04-15T12:10:30;10.50;99.90
6429;DHT22;3247;48.946;10.220;2023-04-15T12:12:55;10.10;99.90
6429;DHT22;3247;48.946;10.220;2023-04-15T12:15:21;10.10;99.90
6429;DHT22;3247;48.946;10.220;2023-04-15T12:17:48;10.10;99.90
6429;DHT22;3247;48.946;10.220;2023-04-15T12:20:19;10.20;99.90
6429;DHT22;3247;48.946;10.220;2023-04-15T12:22:45;10.30;99.90
6429;DHT22;3247;48.946;10.220;2023-04-15T12:25:11;10.30;99.90
6429;DHT22;3247;48.946;10.220;2023-04-15T12:27:36;10.10;99.90
6429;DHT22;3247;48.946;10.220;2023-04-15T12:30:03;10.20;99.90
6429;DHT22;3247;48.946;10.220;2023-04-15T12:32:34;10.20;99.90
6429;DHT22;3247;48.946;10.220;2023-04-15T12:35:00;9.90;99.90
6429;DHT22;3247;48.946;10.220;2023-04-15T12:37:25;10.00;99.90
6429;DHT22;3247;48.946;10.220;2023-04-15T12:39:51;10.00;99.90
6429;DHT22;3247;48.946;10.220;2023-04-15T12:42:18;9.90;99.90
6429;DHT22;3247;48.946;10.220;2023-04-15T12:44:43;10.40;99.90
6429;DHT22;3247;48.946;10.220;2023-04-15T12:47:09;9.60;99.90
6429;DHT22;3247;48.946;10.220;2023-04-15T12:49:35;9.50;99.90
6429;DHT22;3247;48.946;10.220;2023-04-15T12:52:01;9.50;99.90
6429;DHT22;3247;48.946;10.220;2023-04-15T12:54:27;9.40;99.90
6429;DHT22;3247;48.946;10.220;2023-04-15T12:56:53;9.30;99.90
6429;DHT22;3247;48.946;10.220;2023-04-15T12:59:19;9.10;99.90
6429;DHT22;3247;48.946;10.220;2023-04-15T13:01:45;9.00;99.90
6429;DHT22;3247;48.946;10.220;2023-04-15T13:04:11;8.90;99.90
6429;DHT22;3247;48.946;10.220;2023-04-15T13:06:37;8.90;99.90
6429;DHT22;3247;48.946;10.220;2023-04-15T13:09:02;8.90;99.90
6429;DHT22;3247;48.946;10.220;2023-04-15T13:11:28;8.90;99.90
6429;DHT22;3247;48.946;10.220;2023-04-15T13:13:55;8.90;99.90
6429;DHT22;3247;48.946;10.220;2023-04-15T13:16:21;9.00;99.90
6429;DHT22;3247;48.946;10.220;2023-04-15T13:18:47;9.00;99.90
6429;DHT22;3247;48.946;10.220;2023-04-15T13:21:13;9.10;99.90
6429;DHT22;3247;48.946;10.220;2023-04-15T13:23:40;9.20;99.90
6429;DHT22;3247;48.946;10.220;2023-04-15T13:26:05;9.30;99.90
6429;DHT22;3247;48.946;10.220;2023-04-15T13:28:31;9.40;99.90
6429;DHT22;3247;48.946;10.220;2023-04-15T13:30:56;9.40;99.90
6429;DHT22;3247;48.946;10.220;2023-04-15T13:33:27;9.70;99.90
6429;DHT22;3247;48.946;10.220;2023-04-15T13:35:53;9.40;99.90
6429;DHT22;3247;48.946;10.220;2023-04-15T13:38:18;9.30;99.90
6429;DHT22;3247;48.946;10.220;2023-04-15T13:40:44;9.20;99.90
6429;DHT22;3247;48.946;10.220;2023-04-15T13:43:09;9.30;99.90
6429;DHT22;3247;48.946;10.220;2023-04-15T13:45:35;9.30;99.90
6429;DHT22;3247;48.946;10.220;2023-04-15T13:48:01;9.20;99.90
6429;DHT22;3247;48.946;10.220;2023-04-15T13:50:26;9.20;99.90
6429;DHT22;3247;48.946;10.220;2023-04-15T13:52:52;9.10;99.90
6429;DHT22;3247;48.946;10.220;2023-04-15T13:55:17;9.00;99.90
6429;DHT22;3247;48.946;10.220;2023-04-15T13:57:43;9.00;99.90
6429;DHT22;3247;48.946;10.220;2023-04-15T14:00:09;9.10;99.90
6429;DHT22;3247;48.946;10.220;2023-04-15T14:02:34;9.10;99.90
6429;DHT22;3247;48.946;10.220;2023-04-15T14:05:00;9.10;99.90
6429;DHT22;3247;48.946;10.220;2023-04-15T14:07:26;9.10;99.90
6429;DHT22;3247;48.946;10.220;2023-04-15T14:09:53;8.80;99.90
6429;DHT22;3247;48.946;10.220;2023-04-15T14:12:19;8.80;99.90
6429;DHT22;3247;48.946;10.220;2023-04-15T14:14:44;8.70;99.90
6429;DHT22;3247;48.946;10.220;2023-04-15T14:17:10;8.80;99.90
6429;DHT22;3247;48.946;10.220;2023-04-15T14:19:35;8.60;99.90
6429;DHT22;3247;48.946;10.220;2023-04-15T14:22:01;8.70;99.90
6429;DHT22;3247;48.946;10.220;2023-04-15T14:24:27;8.70;99.90
6429;DHT22;3247;48.946;10.220;2023-04-15T14:26:53;8.70;99.90
6429;DHT22;3247;48.946;10.220;2023-04-15T14:29:18;8.80;99.90
6429;DHT22;3247;48.946;10.220;2023-04-15T14:31:44;8.80;99.90
6429;DHT22;3247;48.946;10.220;2023-04-15T14:34:10;8.80;99.90
6429;DHT22;3247;48.946;10.220;2023-04-15T14:36:35;8.70;99.90
6429;DHT22;3247;48.946;10.220;2023-04-15T14:39:01;8.60;99.90
6429;DHT22;3247;48.946;10.220;2023-04-15T14:41:28;8.60;99.90
6429;DHT22;3247;48.946;10.220;2023-04-15T14:43:53;8.60;99.90
6429;DHT22;3247;48.946;10.220;2023-04-15T14:46:19;8.40;99.90
6429;DHT22;3247;48.946;10.220;2023-04-15T14:48:45;8.40;99.90
6429;DHT22;3247;48.946;10.220;2023-04-15T14:51:10;8.40;99.90
6429;DHT22;3247;48.946;10.220;2023-04-15T14:53:36;8.40;99.90
6429;DHT22;3247;48.946;10.220;2023-04-15T14:56:01;8.40;99.90
6429;DHT22;3247;48.946;10.220;2023-04-15T14:58:27;8.30;99.90
6429;DHT22;3247;48.946;10.220;2023-04-15T15:00:52;8.20;99.90
6429;DHT22;3247;48.946;10.220;2023-04-15T15:03:23;8.00;99.90
6429;DHT22;3247;48.946;10.220;2023-04-15T15:05:48;8.10;99.90
6429;DHT22;3247;48.946;10.220;2023-04-15T15:08:14;8.00;99.90
6429;DHT22;3247;48.946;10.220;2023-04-15T15:10:39;8.10;99.90
6429;DHT22;3247;48.946;10.220;2023-04-15T15:13:06;8.40;99.90
6429;DHT22;3247;48.946;10.220;2023-04-15T15:15:32;7.90;99.90
6429;DHT22;3247;48.946;10.220;2023-04-15T15:17:57;7.90;99.90
6429;DHT22;3247;48.946;10.220;2023-04-15T15:20:24;7.90;99.90
6429;DHT22;3247;48.946;10.220;2023-04-15T15:22:49;7.70;99.90
6429;DHT22;3247;48.946;10.220;2023-04-15T15:25:15;7.70;99.90
6429;DHT22;3247;48.946;10.220;2023-04-15T15:27:41;7.70;99.90
6429;DHT22;3247;48.946;10.220;2023-04-15T15:30:06;7.60;99.90
6429;DHT22;3247;48.946;10.220;2023-04-15T15:32:35;7.50;99.90
6429;DHT22;3247;48.946;10.220;2023-04-15T15:35:02;7.40;99.90
6429;DHT22;3247;48.946;10.220;2023-04-15T15:37:29;7.40;99.90
6429;DHT22;3247;48.946;10.220;2023-04-15T15:39:54;7.40;99.90
6429;DHT22;3247;48.946;10.220;2023-04-15T15:42:21;7.30;99.90
6429;DHT22;3247;48.946;10.220;2023-04-15T15:44:46;7.40;99.90
6429;DHT22;3247;48.946;10.220;2023-04-15T15:47:16;7.40;99.90
6429;DHT22;3247;48.946;10.220;2023-04-15T15:49:41;7.40;99.90
6429;DHT22;3247;48.946;10.220;2023-04-15T15:52:06;7.40;99.90
6429;DHT22;3247;48.946;10.220;2023-04-15T15:54:32;7.30;99.90
6429;DHT22;3247;48.946;10.220;2023-04-15T15:56:59;7.20;99.90
6429;DHT22;3247;48.946;10.220;2023-04-15T15:59:24;7.20;99.90
6429;DHT22;3247;48.946;10.220;2023-04-15T16:01:53;7.10;99.90
6429;DHT22;3247;48.946;10.220;2023-04-15T16:04:18;7.10;99.90
6429;DHT22;3247;48.946;10.220;2023-04-15T16:06:43;7.00;99.90
6429;DHT22;3247;48.946;10.220;2023-04-15T16:09:11;7.00;99.90